Time,TemperatureF,DewpointF,PressureIn,WindDirection,WindDirectionDegrees,WindSpeedMPH,WindSpeedGustMPH,Humidity,HourlyPrecipIn,Conditions,Clouds,dailyrainin,SoftwareType,DateUTC
2013-09-26 00:02:00,-999.0,-99.9,29.91,NNW,338,0.0,0.0,-999,0.00,,,0.00,WSDL version 420,2013-09-26 04:02:00,
2013-09-26 00:04:00,54.1,50.3,29.91,NNW,338,0.0,0.0,87,0.00,,,0.00,WSDL version 420,2013-09-26 04:04:00,
2013-09-26 00:06:00,54.1,50.3,29.91,NNW,338,0.0,0.0,87,0.00,,,0.00,WSDL version 420,2013-09-26 04:06:00,
2013-09-26 00:08:00,54.3,50.5,29.91,NNW,338,0.0,0.0,87,0.00,,,0.00,WSDL version 420,2013-09-26 04:08:00,
2013-09-26 00:14:00,54.3,50.8,29.91,NNW,338,0.0,0.0,88,0.00,,,0.00,WSDL version 420,2013-09-26 04:14:00,
2013-09-26 00:21:00,54.3,50.8,29.91,NNW,338,0.0,0.0,88,0.00,,,0.00,WSDL version 420,2013-09-26 04:21:00,
2013-09-26 00:27:00,54.5,50.9,29.91,WNW,293,0.0,0.0,87,0.00,,,0.00,WSDL version 420,2013-09-26 04:27:00,
2013-09-26 00:34:00,54.2,50.3,29.91,West,270,0.0,0.0,87,0.00,,,0.00,WSDL version 420,2013-09-26 04:34:00,
2013-09-26 00:41:00,53.9,49.9,29.91,WSW,248,0.0,0.0,86,0.00,,,0.00,WSDL version 420,2013-09-26 04:41:00,
2013-09-26 00:47:00,53.4,49.5,29.91,WSW,248,0.0,0.0,87,0.00,,,0.00,WSDL version 420,2013-09-26 04:47:00,
2013-09-26 00:54:00,53.5,50.0,29.91,WSW,248,0.0,0.0,88,0.00,,,0.00,WSDL version 420,2013-09-26 04:54:00,
2013-09-26 01:00:00,54.1,50.8,29.91,WSW,248,0.0,0.0,88,0.00,,,0.00,WSDL version 420,2013-09-26 05:00:00,
2013-09-26 01:07:00,53.7,50.0,29.91,South,180,0.0,0.0,87,0.00,,,0.00,WSDL version 420,2013-09-26 05:07:00,
2013-09-26 01:13:00,53.7,50.2,29.91,SSW,203,0.0,0.0,88,0.00,,,0.00,WSDL version 420,2013-09-26 05:13:00,
2013-09-26 01:19:00,54.0,50.4,29.91,North,-999,-999.0,-999.0,88,0.00,,,0.00,WSDL version 420,2013-09-26 05:19:00,
2013-09-26 01:26:00,54.1,50.8,29.91,WSW,248,0.0,0.0,88,0.00,,,0.00,WSDL version 420,2013-09-26 05:26:00,
2013-09-26 01:32:00,54.4,51.1,29.91,WSW,248,0.0,0.0,89,0.00,,,0.00,WSDL version 420,2013-09-26 05:32:00,
2013-09-26 01:39:00,54.5,51.3,29.91,WSW,248,0.0,0.0,89,0.00,,,0.00,WSDL version 420,2013-09-26 05:39:00,
2013-09-26 01:46:00,54.7,51.5,29.91,SSW,203,0.0,0.0,89,0.00,,,0.00,WSDL version 420,2013-09-26 05:46:00,
2013-09-26 01:52:00,54.7,51.3,29.91,SW,225,0.0,0.0,89,0.00,,,0.00,WSDL version 420,2013-09-26 05:52:00,
2013-09-26 01:59:00,55.0,51.7,29.91,SW,225,0.0,0.0,89,0.00,,,0.00,WSDL version 420,2013-09-26 05:59:00,
2013-09-26 02:05:00,54.5,50.8,29.91,SW,225,0.0,0.0,88,0.00,,,0.00,WSDL version 420,2013-09-26 06:05:00,
2013-09-26 02:12:00,54.9,51.7,29.91,SW,225,0.0,0.0,89,0.00,,,0.00,WSDL version 420,2013-09-26 06:12:00,
2013-09-26 02:18:00,55.0,51.8,29.91,SSW,203,0.0,0.0,89,0.00,,,0.00,WSDL version 420,2013-09-26 06:18:00,
2013-09-26 02:25:00,55.3,52.2,29.91,SSW,203,0.0,0.0,89,0.00,,,0.00,WSDL version 420,2013-09-26 06:25:00,
2013-09-26 02:31:00,55.5,52.2,29.91,West,270,0.0,0.0,89,0.00,,,0.00,WSDL version 420,2013-09-26 06:31:00,
2013-09-26 02:38:00,-999.0,-99.9,29.91,West,270,0.0,0.0,-999,0.00,,,0.00,WSDL version 420,2013-09-26 06:38:00,
2013-09-26 02:44:00,55.6,52.4,29.91,SE,135,2.0,2.0,89,0.00,,,0.00,WSDL version 420,2013-09-26 06:44:00,
2013-09-26 02:51:00,55.9,52.6,29.91,SE,135,0.0,2.0,89,0.00,,,0.00,WSDL version 420,2013-09-26 06:51:00,
2013-09-26 02:57:00,55.9,52.8,29.91,SE,135,0.0,0.0,90,0.00,,,0.00,WSDL version 420,2013-09-26 06:57:00,
2013-09-26 03:04:00,56.0,52.9,29.91,SSW,195,0.0,0.0,89,0.00,,,0.00,WSDL version 420,2013-09-26 07:04:00,
2013-09-26 03:10:00,56.0,52.9,29.91,SW,225,0.0,0.0,89,0.00,,,0.00,WSDL version 420,2013-09-26 07:10:00,
2013-09-26 03:17:00,56.1,52.8,29.91,South,180,0.0,0.0,89,0.00,,,0.00,WSDL version 420,2013-09-26 07:17:00,
2013-09-26 03:24:00,56.0,52.9,29.91,North,0,0.0,0.0,90,0.00,,,0.00,WSDL version 420,2013-09-26 07:24:00,
2013-09-26 03:30:00,56.1,52.8,29.91,NW,315,0.0,0.0,89,0.00,,,0.00,WSDL version 420,2013-09-26 07:30:00,
2013-09-26 03:37:00,56.2,53.1,29.91,NNW,338,0.4,0.9,90,0.00,,,0.00,WSDL version 420,2013-09-26 07:37:00,
2013-09-26 03:43:00,56.3,53.3,29.91,SE,135,0.0,2.5,89,0.00,,,0.00,WSDL version 420,2013-09-26 07:43:00,
2013-09-26 03:50:00,56.3,53.1,29.91,NW,315,1.1,1.1,89,-99.99,,,-99.99,WSDL version 420,2013-09-26 07:50:00,
2013-09-26 03:56:00,56.1,52.5,29.91,South,180,0.0,1.1,88,0.00,,,0.00,WSDL version 420,2013-09-26 07:56:00,
2013-09-26 04:03:00,56.1,52.9,29.91,South,180,0.0,1.1,89,0.00,,,0.00,WSDL version 420,2013-09-26 08:03:00,
2013-09-26 04:09:00,56.1,52.8,29.91,South,180,0.0,0.0,89,0.00,,,0.00,WSDL version 420,2013-09-26 08:09:00,
2013-09-26 04:16:00,56.1,52.9,29.91,NNW,338,2.0,2.0,89,0.00,,,0.00,WSDL version 420,2013-09-26 08:16:00,
2013-09-26 04:22:00,56.2,53.0,29.91,NNW,338,0.0,2.0,89,0.00,,,0.00,WSDL version 420,2013-09-26 08:22:00,
2013-09-26 04:29:00,56.3,53.1,29.91,South,180,0.0,0.0,89,0.00,,,0.00,WSDL version 420,2013-09-26 08:29:00,
2013-09-26 04:36:00,56.1,52.9,29.91,SE,135,0.0,1.3,89,0.00,,,0.00,WSDL version 420,2013-09-26 08:36:00,
2013-09-26 04:42:00,56.1,52.9,29.91,WNW,293,0.0,1.3,89,0.00,,,0.00,WSDL version 420,2013-09-26 08:42:00,
2013-09-26 04:49:00,-999.0,-99.9,29.91,SSW,203,0.0,0.0,-999,0.00,,,0.00,WSDL version 420,2013-09-26 08:49:00,
2013-09-26 04:55:00,55.9,52.7,29.91,NE,45,1.6,1.6,89,0.00,,,0.00,WSDL version 420,2013-09-26 08:55:00,
2013-09-26 05:02:00,55.9,52.9,29.91,SW,225,0.0,1.6,89,0.00,,,0.00,WSDL version 420,2013-09-26 09:02:00,
2013-09-26 05:08:00,55.6,52.4,29.91,WNW,293,0.0,1.6,89,0.00,,,0.00,WSDL version 420,2013-09-26 09:08:00,
2013-09-26 05:15:00,55.4,52.3,29.91,SW,225,0.0,0.0,89,0.00,,,0.00,WSDL version 420,2013-09-26 09:15:00,
2013-09-26 05:21:00,55.2,52.3,29.91,SW,233,0.0,0.0,90,0.00,,,0.00,WSDL version 420,2013-09-26 09:21:00,
2013-09-26 05:28:00,55.2,52.5,29.91,West,270,0.0,0.0,91,0.00,,,0.00,WSDL version 420,2013-09-26 09:28:00,
2013-09-26 05:34:00,54.9,52.3,29.91,WNW,293,0.0,0.0,91,0.00,,,0.00,WSDL version 420,2013-09-26 09:34:00,
2013-09-26 05:41:00,54.8,52.1,29.91,SW,225,0.0,0.0,91,0.00,,,0.00,WSDL version 420,2013-09-26 09:41:00,
2013-09-26 05:48:00,54.6,51.9,29.91,SE,135,0.0,0.0,91,0.00,,,0.00,WSDL version 420,2013-09-26 09:48:00,
2013-09-26 05:54:00,54.5,52.0,29.94,SW,225,0.0,1.1,91,0.00,,,0.00,WSDL version 420,2013-09-26 09:54:00,
2013-09-26 06:01:00,54.6,52.1,29.94,WNW,293,0.0,1.1,91,0.00,,,0.00,WSDL version 420,2013-09-26 10:01:00,
2013-09-26 06:07:00,54.6,52.2,29.94,SSW,197,0.0,0.0,92,0.00,,,0.00,WSDL version 420,2013-09-26 10:07:00,
2013-09-26 06:14:00,54.5,52.2,29.94,SSE,158,0.0,0.0,92,0.00,,,0.00,WSDL version 420,2013-09-26 10:14:00,
2013-09-26 06:20:00,54.6,52.4,29.94,SSE,158,0.0,0.0,92,0.00,,,0.00,WSDL version 420,2013-09-26 10:20:00,
2013-09-26 06:27:00,54.4,52.2,29.94,North,0,0.0,0.0,92,-99.99,,,-99.99,WSDL version 420,2013-09-26 10:27:00,
2013-09-26 06:34:00,54.3,51.9,29.94,North,-999,-999.0,-999.0,92,0.00,,,0.00,WSDL version 420,2013-09-26 10:34:00,
2013-09-26 06:40:00,54.4,52.1,29.94,SSW,203,0.0,0.0,91,0.00,,,0.00,WSDL version 420,2013-09-26 10:40:00,
2013-09-26 06:47:00,54.3,51.9,29.94,South,180,1.3,1.3,92,0.00,,,0.00,WSDL version 420,2013-09-26 10:47:00,
2013-09-26 06:53:00,54.4,52.2,29.94,South,180,0.0,1.3,92,0.00,,,0.00,WSDL version 420,2013-09-26 10:53:00,
2013-09-26 07:00:00,54.6,52.4,29.94,NNE,23,0.0,0.0,92,0.00,,,0.00,WSDL version 420,2013-09-26 11:00:00,
2013-09-26 07:06:00,54.5,52.3,29.97,NNE,23,0.0,0.0,92,0.00,,,0.00,WSDL version 420,2013-09-26 11:06:00,
2013-09-26 07:13:00,-999.0,-99.9,29.97,West,270,0.0,0.0,-999,0.00,,,0.00,WSDL version 420,2013-09-26 11:13:00,
2013-09-26 07:20:00,54.9,52.6,29.97,West,270,0.0,0.0,92,0.00,,,0.00,WSDL version 420,2013-09-26 11:20:00,
2013-09-26 07:26:00,55.3,52.9,29.97,North,0,0.0,0.0,91,0.00,,,0.00,WSDL version 420,2013-09-26 11:26:00,
2013-09-26 07:33:00,55.8,53.2,29.97,ESE,118,0.5,1.1,90,0.00,,,0.00,WSDL version 420,2013-09-26 11:33:00,
2013-09-26 07:39:00,56.0,53.1,29.97,SSE,158,1.1,1.1,90,0.00,,,0.00,WSDL version 420,2013-09-26 11:39:00,
2013-09-26 07:46:00,56.1,53.2,29.97,ENE,68,0.0,1.1,90,0.00,,,0.00,WSDL version 420,2013-09-26 11:46:00,
2013-09-26 07:53:00,56.3,53.2,29.97,SE,135,2.5,2.5,89,0.00,,,0.00,WSDL version 420,2013-09-26 11:53:00,
2013-09-26 07:59:00,56.6,53.2,29.97,SE,135,0.0,2.9,88,0.00,,,0.00,WSDL version 420,2013-09-26 11:59:00,
2013-09-26 08:06:00,-999.0,-99.9,29.97,SE,135,2.0,2.9,-999,0.00,,,0.00,WSDL version 420,2013-09-26 12:06:00,
2013-09-26 08:12:00,56.8,53.1,29.97,NE,45,2.2,2.7,87,0.00,,,0.00,WSDL version 420,2013-09-26 12:12:00,
2013-09-26 08:19:00,57.1,53.0,29.97,East,90,4.7,4.7,86,0.00,,,0.00,WSDL version 420,2013-09-26 12:19:00,
2013-09-26 08:26:00,57.3,52.8,29.97,SSW,203,1.1,4.7,84,0.00,,,0.00,WSDL version 420,2013-09-26 12:26:00,
2013-09-26 08:32:00,57.6,52.9,29.97,East,90,2.9,2.9,84,0.00,,,0.00,WSDL version 420,2013-09-26 12:32:00,
2013-09-26 08:39:00,57.8,52.8,29.97,South,180,1.3,2.9,83,0.00,,,0.00,WSDL version 420,2013-09-26 12:39:00,
2013-09-26 08:46:00,58.2,52.8,29.97,SE,135,3.8,3.8,82,0.00,,,0.00,WSDL version 420,2013-09-26 12:46:00,
2013-09-26 08:52:00,58.3,52.9,29.97,SE,135,1.3,3.8,82,0.00,,,0.00,WSDL version 420,2013-09-26 12:52:00,
2013-09-26 08:59:00,-999.0,-99.9,29.97,NE,45,2.0,5.4,-999,0.00,,,0.00,WSDL version 420,2013-09-26 12:59:00,
2013-09-26 09:05:00,59.0,53.0,29.97,East,79,2.1,3.1,80,0.00,,,0.00,WSDL version 420,2013-09-26 13:05:00,
2013-09-26 09:12:00,59.4,53.1,29.97,ESE,113,2.0,4.3,79,0.00,,,0.00,WSDL version 420,2013-09-26 13:12:00,
2013-09-26 09:19:00,59.6,53.0,30.00,SE,135,4.5,4.5,78,0.00,,,0.00,WSDL version 420,2013-09-26 13:19:00,
2013-09-26 09:25:00,59.8,53.3,30.00,East,96,4.3,5.6,79,0.00,,,0.00,WSDL version 420,2013-09-26 13:25:00,
2013-09-26 09:32:00,60.3,53.5,30.00,SE,135,3.8,5.6,78,0.00,,,0.00,WSDL version 420,2013-09-26 13:32:00,
2013-09-26 09:39:00,60.8,53.3,30.00,ESE,113,3.2,3.8,76,0.00,,,0.00,WSDL version 420,2013-09-26 13:39:00,
2013-09-26 09:45:00,61.0,53.2,30.00,ESE,113,4.7,5.6,75,0.00,,,0.00,WSDL version 420,2013-09-26 13:45:00,
2013-09-26 09:52:00,61.2,53.1,30.00,SSE,150,2.0,5.6,75,0.00,,,0.00,WSDL version 420,2013-09-26 13:52:00,
2013-09-26 09:58:00,61.7,53.5,30.00,East,90,3.8,3.8,74,0.00,,,0.00,WSDL version 420,2013-09-26 13:58:00,
2013-09-26 10:05:00,62.4,53.6,30.00,East,90,2.5,3.8,73,0.00,,,0.00,WSDL version 420,2013-09-26 14:05:00,
2013-09-26 10:12:00,63.0,53.9,30.00,East,90,3.6,5.4,72,0.00,,,0.00,WSDL version 420,2013-09-26 14:12:00,
2013-09-26 10:18:00,63.4,54.3,30.00,SE,135,1.1,4.0,72,0.00,,,0.00,WSDL version 420,2013-09-26 14:18:00,
2013-09-26 10:25:00,63.1,53.9,30.00,NE,45,1.1,3.6,72,0.00,,,0.00,WSDL version 420,2013-09-26 14:25:00,
2013-09-26 10:32:00,63.1,54.0,30.00,East,90,4.3,4.3,72,0.00,,,0.00,WSDL version 420,2013-09-26 14:32:00,
2013-09-26 10:38:00,64.1,54.3,30.00,ESE,113,4.0,4.3,70,0.00,,,0.00,WSDL version 420,2013-09-26 14:38:00,
2013-09-26 10:45:00,64.3,53.9,30.00,South,180,3.1,4.9,69,0.00,,,0.00,WSDL version 420,2013-09-26 14:45:00,
2013-09-26 10:52:00,-999.0,-99.9,30.00,SSE,158,2.9,3.8,-999,0.00,,,0.00,WSDL version 420,2013-09-26 14:52:00,
2013-09-26 10:58:00,65.7,54.4,30.00,East,101,3.4,4.0,66,0.00,,,0.00,WSDL version 420,2013-09-26 14:58:00,
2013-09-26 11:05:00,64.8,54.0,30.00,ESE,113,3.1,4.0,68,0.00,,,0.00,WSDL version 420,2013-09-26 15:05:00,
2013-09-26 11:12:00,65.2,53.6,30.00,SSW,203,1.3,3.1,66,0.00,,,0.00,WSDL version 420,2013-09-26 15:12:00,
2013-09-26 11:18:00,65.1,53.3,30.00,WSW,248,1.3,3.8,65,0.00,,,0.00,WSDL version 420,2013-09-26 15:18:00,
2013-09-26 11:25:00,64.3,53.1,30.00,SW,225,1.3,2.7,67,0.00,,,0.00,WSDL version 420,2013-09-26 15:25:00,
2013-09-26 11:32:00,64.0,52.5,30.00,SE,135,0.0,2.0,67,0.00,,,0.00,WSDL version 420,2013-09-26 15:32:00,
2013-09-26 11:38:00,64.0,52.6,30.00,East,98,2.2,3.8,67,0.00,,,0.00,WSDL version 420,2013-09-26 15:38:00,
2013-09-26 11:45:00,-999.0,-99.9,30.00,East,90,3.4,4.0,-999,0.00,,,0.00,WSDL version 420,2013-09-26 15:45:00,
2013-09-26 11:52:00,-999.0,-99.9,30.00,SE,135,1.3,5.8,-999,0.00,,,0.00,WSDL version 420,2013-09-26 15:52:00,
2013-09-26 11:58:00,66.2,53.0,30.00,East,90,2.9,4.3,63,0.00,,,0.00,WSDL version 420,2013-09-26 15:58:00,
2013-09-26 12:05:00,65.1,52.2,30.00,SW,225,0.0,3.8,63,0.00,,,0.00,WSDL version 420,2013-09-26 16:05:00,
2013-09-26 12:12:00,64.6,51.9,30.00,East,90,1.6,2.0,64,-99.99,,,-99.99,WSDL version 420,2013-09-26 16:12:00,
2013-09-26 12:18:00,65.0,52.5,30.00,NE,45,4.3,4.3,64,0.00,,,0.00,WSDL version 420,2013-09-26 16:18:00,
2013-09-26 12:25:00,65.0,52.6,30.00,SE,135,2.0,4.3,64,-99.99,,,-99.99,WSDL version 420,2013-09-26 16:25:00,
2013-09-26 12:32:00,64.7,52.7,30.00,ESE,113,2.0,2.9,65,0.00,,,0.00,WSDL version 420,2013-09-26 16:32:00,
2013-09-26 12:38:00,65.2,52.5,30.00,SE,146,2.3,3.6,63,0.00,,,0.00,WSDL version 420,2013-09-26 16:38:00,
2013-09-26 12:45:00,65.9,53.2,30.00,NE,45,2.7,4.9,64,0.00,,,0.00,WSDL version 420,2013-09-26 16:45:00,
2013-09-26 12:52:00,-999.0,-99.9,30.00,NW,315,0.0,3.1,-999,0.00,,,0.00,WSDL version 420,2013-09-26 16:52:00,
2013-09-26 12:58:00,66.4,52.4,30.00,South,180,3.0,3.8,60,0.00,,,0.00,WSDL version 420,2013-09-26 16:58:00,
2013-09-26 13:05:00,66.8,50.9,30.00,SE,135,3.8,3.8,58,0.00,,,0.00,WSDL version 420,2013-09-26 17:05:00,
2013-09-26 13:12:00,67.8,51.7,30.00,SE,135,3.8,3.8,56,0.00,,,0.00,WSDL version 420,2013-09-26 17:12:00,
2013-09-26 13:18:00,68.0,51.7,30.00,SW,225,1.9,3.8,55,0.00,,,0.00,WSDL version 420,2013-09-26 17:18:00,
2013-09-26 13:25:00,68.7,51.0,30.00,NNE,23,2.8,5.6,54,0.00,,,0.00,WSDL version 420,2013-09-26 17:25:00,
2013-09-26 13:32:00,69.2,51.9,30.00,East,101,3.4,5.6,54,0.00,,,0.00,WSDL version 420,2013-09-26 17:32:00,
2013-09-26 13:39:00,68.9,51.4,30.00,East,90,6.5,6.5,53,0.00,,,0.00,WSDL version 420,2013-09-26 17:39:00,
2013-09-26 13:45:00,68.4,50.8,30.00,East,90,2.5,6.5,54,0.00,,,0.00,WSDL version 420,2013-09-26 17:45:00,
2013-09-26 13:52:00,-999.0,-99.9,30.00,ENE,68,2.2,4.0,-999,0.00,,,0.00,WSDL version 420,2013-09-26 17:52:00,
2013-09-26 13:59:00,68.2,50.6,30.00,ENE,68,4.0,4.7,53,0.00,,,0.00,WSDL version 420,2013-09-26 17:59:00,
2013-09-26 14:05:00,68.2,51.3,30.00,South,169,2.0,4.7,55,0.00,,,0.00,WSDL version 420,2013-09-26 18:05:00,
2013-09-26 14:12:00,68.4,51.3,30.00,South,180,2.9,4.7,55,0.00,,,0.00,WSDL version 420,2013-09-26 18:12:00,
2013-09-26 14:19:00,68.1,51.4,30.00,East,90,2.3,3.8,55,0.00,,,0.00,WSDL version 420,2013-09-26 18:19:00,
2013-09-26 14:25:00,67.0,50.2,30.00,SSE,165,0.4,3.8,55,0.00,,,0.00,WSDL version 420,2013-09-26 18:25:00,
2013-09-26 14:32:00,67.2,51.0,30.00,SSE,158,2.2,3.1,55,-99.99,,,-99.99,WSDL version 420,2013-09-26 18:32:00,
2013-09-26 14:39:00,67.9,51.6,29.97,North,360,0.7,3.1,56,0.00,,,0.00,WSDL version 420,2013-09-26 18:39:00,
2013-09-26 14:45:00,68.3,51.5,29.97,NE,56,1.9,2.9,55,0.00,,,0.00,WSDL version 420,2013-09-26 18:45:00,
2013-09-26 14:52:00,-999.0,-99.9,30.00,SE,135,2.8,3.1,-999,0.00,,,0.00,WSDL version 420,2013-09-26 18:52:00,
2013-09-26 14:59:00,68.6,51.8,30.00,East,90,2.0,3.1,55,0.00,,,0.00,WSDL version 420,2013-09-26 18:59:00,
2013-09-26 15:06:00,68.5,52.0,30.00,West,270,1.3,2.2,56,0.00,,,0.00,WSDL version 420,2013-09-26 19:06:00,
2013-09-26 15:12:00,69.0,52.4,30.00,South,180,1.0,2.2,55,0.00,,,0.00,WSDL version 420,2013-09-26 19:12:00,
2013-09-26 15:19:00,68.8,52.0,30.00,NW,315,1.6,4.0,55,0.00,,,0.00,WSDL version 420,2013-09-26 19:19:00,
2013-09-26 15:26:00,68.7,51.4,30.00,SSE,158,3.4,5.6,54,0.00,,,0.00,WSDL version 420,2013-09-26 19:26:00,
2013-09-26 15:32:00,68.1,51.4,30.00,East,90,3.9,4.0,55,0.00,,,0.00,WSDL version 420,2013-09-26 19:32:00,
2013-09-26 15:39:00,66.9,50.7,30.00,SSE,150,2.1,4.0,56,0.00,,,0.00,WSDL version 420,2013-09-26 19:39:00,
2013-09-26 15:46:00,66.1,50.2,30.00,ENE,68,2.5,2.7,56,0.00,,,0.00,WSDL version 420,2013-09-26 19:46:00,
2013-09-26 15:53:00,66.2,50.5,30.00,SE,135,1.9,2.9,57,0.00,,,0.00,WSDL version 420,2013-09-26 19:53:00,
2013-09-26 15:59:00,66.1,50.8,30.00,NE,45,1.3,2.9,59,0.00,,,0.00,WSDL version 420,2013-09-26 19:59:00,
2013-09-26 16:06:00,66.1,50.7,30.00,NE,53,3.9,5.8,57,0.00,,,0.00,WSDL version 420,2013-09-26 20:06:00,
2013-09-26 16:13:00,66.6,51.3,30.00,West,281,1.1,5.8,58,0.00,,,0.00,WSDL version 420,2013-09-26 20:13:00,
2013-09-26 16:20:00,66.0,50.8,30.00,SE,135,1.1,2.2,58,0.00,,,0.00,WSDL version 420,2013-09-26 20:20:00,
2013-09-26 16:26:00,65.6,50.6,30.00,SE,135,2.5,3.6,59,-99.99,,,-99.99,WSDL version 420,2013-09-26 20:26:00,
2013-09-26 16:33:00,64.9,49.6,30.00,East,90,4.0,4.0,58,0.00,,,0.00,WSDL version 420,2013-09-26 20:33:00,
2013-09-26 16:40:00,64.8,49.0,30.00,NW,315,1.6,4.0,56,0.00,,,0.00,WSDL version 420,2013-09-26 20:40:00,
2013-09-26 16:47:00,64.3,49.0,30.00,NNW,338,3.4,3.4,58,0.00,,,0.00,WSDL version 420,2013-09-26 20:47:00,
2013-09-26 16:53:00,63.6,48.3,30.00,SE,143,0.0,3.4,57,0.00,,,0.00,WSDL version 420,2013-09-26 20:53:00,
2013-09-26 17:00:00,63.0,48.7,30.00,ESE,113,2.9,3.4,59,0.00,,,0.00,WSDL version 420,2013-09-26 21:00:00,
2013-09-26 17:07:00,62.4,48.3,30.00,East,101,1.1,2.9,62,0.00,,,0.00,WSDL version 420,2013-09-26 21:07:00,
2013-09-26 17:13:00,61.6,48.9,30.00,SW,236,0.0,2.5,63,0.00,,,0.00,WSDL version 420,2013-09-26 21:13:00,
2013-09-26 17:20:00,60.8,48.6,30.00,NW,315,0.0,2.5,64,0.00,,,0.00,WSDL version 420,2013-09-26 21:20:00,
2013-09-26 17:27:00,60.2,48.0,30.00,NW,304,0.0,2.9,64,0.00,,,0.00,WSDL version 420,2013-09-26 21:27:00,
2013-09-26 17:34:00,59.7,48.4,30.00,West,281,0.0,2.9,66,0.00,,,0.00,WSDL version 420,2013-09-26 21:34:00,
2013-09-26 17:41:00,59.5,48.1,30.00,NNW,338,1.1,2.2,66,0.00,,,0.00,WSDL version 420,2013-09-26 21:41:00,
2013-09-26 17:47:00,59.3,48.3,30.00,WSW,248,0.0,2.2,67,0.00,,,0.00,WSDL version 420,2013-09-26 21:47:00,
2013-09-26 17:54:00,-999.0,-99.9,30.00,WSW,248,0.0,0.9,-999,0.00,,,0.00,WSDL version 420,2013-09-26 21:54:00,
2013-09-26 18:01:00,58.6,48.1,30.00,WSW,248,0.0,0.0,68,0.00,,,0.00,WSDL version 420,2013-09-26 22:01:00,
2013-09-26 18:08:00,58.6,48.7,30.03,SE,135,0.0,1.6,70,0.00,,,0.00,WSDL version 420,2013-09-26 22:08:00,
2013-09-26 18:14:00,58.2,48.5,30.03,SW,236,1.1,1.6,70,0.00,,,0.00,WSDL version 420,2013-09-26 22:14:00,
2013-09-26 18:21:00,57.9,47.8,30.03,SW,225,1.3,1.3,69,0.00,,,0.00,WSDL version 420,2013-09-26 22:21:00,
2013-09-26 18:28:00,57.7,47.8,30.03,South,191,0.0,1.3,70,0.00,,,0.00,WSDL version 420,2013-09-26 22:28:00,
2013-09-26 18:35:00,57.2,47.5,30.03,WNW,293,0.0,0.9,70,0.00,,,0.00,WSDL version 420,2013-09-26 22:35:00,
2013-09-26 18:41:00,57.0,47.7,30.03,WNW,293,0.0,0.9,71,0.00,,,0.00,WSDL version 420,2013-09-26 22:41:00,
2013-09-26 18:48:00,56.7,47.4,30.03,WNW,293,0.0,0.0,71,0.00,,,0.00,WSDL version 420,2013-09-26 22:48:00,
2013-09-26 18:55:00,56.4,47.2,30.03,WNW,293,0.0,0.0,71,0.00,,,0.00,WSDL version 420,2013-09-26 22:55:00,
2013-09-26 19:02:00,56.6,47.8,30.03,SSE,158,0.0,1.6,73,0.00,,,0.00,WSDL version 420,2013-09-26 23:02:00,
2013-09-26 19:08:00,56.0,47.1,30.03,WSW,248,1.6,2.2,72,0.00,,,0.00,WSDL version 420,2013-09-26 23:08:00,
2013-09-26 19:15:00,55.9,47.5,30.03,WSW,248,0.0,2.2,74,0.00,,,0.00,WSDL version 420,2013-09-26 23:15:00,
2013-09-26 19:22:00,56.0,47.8,30.03,WSW,248,0.0,1.3,74,0.00,,,0.00,WSDL version 420,2013-09-26 23:22:00,
2013-09-26 19:29:00,55.1,47.7,30.03,WSW,248,0.0,1.1,76,0.00,,,0.00,WSDL version 420,2013-09-26 23:29:00,
2013-09-26 19:36:00,55.2,48.2,30.06,WSW,248,0.0,1.1,78,0.00,,,0.00,WSDL version 420,2013-09-26 23:36:00,
2013-09-26 19:42:00,54.5,47.8,30.06,WSW,248,0.0,0.0,79,0.00,,,0.00,WSDL version 420,2013-09-26 23:42:00,
2013-09-26 19:49:00,54.7,48.1,30.06,WSW,248,0.0,0.0,78,0.00,,,0.00,WSDL version 420,2013-09-26 23:49:00,
2013-09-26 19:56:00,-999.0,-99.9,30.06,WSW,248,0.0,0.0,-999,0.00,,,0.00,WSDL version 420,2013-09-26 23:56:00,
2013-09-26 20:03:00,-999.0,-99.9,30.06,WSW,248,0.0,0.0,-999,0.00,,,0.00,WSDL version 420,2013-09-27 00:03:00,
2013-09-26 20:10:00,54.3,48.3,30.06,WSW,248,0.0,0.0,80,0.00,,,0.00,WSDL version 420,2013-09-27 00:10:00,
2013-09-26 20:16:00,54.1,48.4,30.06,WSW,248,0.0,0.0,81,0.00,,,0.00,WSDL version 420,2013-09-27 00:16:00,
2013-09-26 20:23:00,54.7,48.6,30.06,WSW,248,0.0,0.0,80,0.00,,,0.00,WSDL version 420,2013-09-27 00:23:00,
2013-09-26 20:30:00,54.5,49.2,30.06,WSW,248,0.0,0.0,82,0.00,,,0.00,WSDL version 420,2013-09-27 00:30:00,
2013-09-26 20:37:00,54.4,48.7,30.09,WSW,248,0.0,0.0,81,0.00,,,0.00,WSDL version 420,2013-09-27 00:37:00,
2013-09-26 20:44:00,53.9,48.2,30.09,WSW,248,0.0,0.0,81,0.00,,,0.00,WSDL version 420,2013-09-27 00:44:00,
2013-09-26 20:51:00,54.0,48.7,30.09,WSW,248,0.0,0.0,82,0.00,,,0.00,WSDL version 420,2013-09-27 00:51:00,
2013-09-26 20:57:00,54.1,48.7,30.09,WSW,248,0.0,0.0,82,0.00,,,0.00,WSDL version 420,2013-09-27 00:57:00,
2013-09-26 21:04:00,54.4,49.1,30.09,WSW,248,0.0,0.0,82,0.00,,,0.00,WSDL version 420,2013-09-27 01:04:00,
2013-09-26 21:11:00,54.4,49.4,30.09,WSW,248,0.0,0.0,83,0.00,,,0.00,WSDL version 420,2013-09-27 01:11:00,
2013-09-26 21:18:00,54.4,49.2,30.09,WSW,248,0.0,0.0,82,-99.99,,,-99.99,WSDL version 420,2013-09-27 01:18:00,
2013-09-26 21:25:00,54.2,49.1,30.09,WSW,248,0.0,0.0,83,0.00,,,0.00,WSDL version 420,2013-09-27 01:25:00,
2013-09-26 21:31:00,53.9,49.0,30.09,WSW,248,0.0,0.0,83,0.00,,,0.00,WSDL version 420,2013-09-27 01:31:00,
2013-09-26 21:38:00,54.1,49.3,30.09,WSW,248,0.0,0.0,83,0.00,,,0.00,WSDL version 420,2013-09-27 01:38:00,
2013-09-26 21:45:00,54.1,49.5,30.09,WSW,248,0.0,0.0,84,0.00,,,0.00,WSDL version 420,2013-09-27 01:45:00,
2013-09-26 21:52:00,54.3,49.4,30.09,WSW,248,0.0,0.0,83,0.00,,,0.00,WSDL version 420,2013-09-27 01:52:00,
2013-09-26 21:59:00,54.4,49.6,30.09,WSW,248,0.0,0.0,83,0.00,,,0.00,WSDL version 420,2013-09-27 01:59:00,
2013-09-26 22:06:00,54.1,49.6,30.09,WSW,248,0.0,0.0,84,0.00,,,0.00,WSDL version 420,2013-09-27 02:06:00,
2013-09-26 22:12:00,54.3,49.7,30.09,WSW,248,0.0,0.0,84,0.00,,,0.00,WSDL version 420,2013-09-27 02:12:00,
2013-09-26 22:19:00,54.2,49.6,30.09,WSW,248,0.0,0.0,84,0.00,,,0.00,WSDL version 420,2013-09-27 02:19:00,
2013-09-26 22:26:00,54.2,49.6,30.09,WSW,248,0.0,0.0,84,0.00,,,0.00,WSDL version 420,2013-09-27 02:26:00,
2013-09-26 22:33:00,54.2,49.6,30.09,WSW,248,0.0,0.0,84,0.00,,,0.00,WSDL version 420,2013-09-27 02:33:00,
2013-09-26 22:40:00,53.6,49.0,30.09,WSW,248,0.0,0.0,84,0.00,,,0.00,WSDL version 420,2013-09-27 02:40:00,
2013-09-26 22:47:00,53.8,49.6,30.09,North,0,0.0,0.0,86,0.00,,,0.00,WSDL version 420,2013-09-27 02:47:00,
2013-09-26 22:53:00,53.5,49.3,30.09,WSW,248,0.0,0.0,86,0.00,,,0.00,WSDL version 420,2013-09-27 02:53:00,
2013-09-26 23:00:00,53.9,49.6,30.09,WSW,248,0.0,0.0,86,0.00,,,0.00,WSDL version 420,2013-09-27 03:00:00,
2013-09-26 23:07:00,54.0,49.4,30.09,WSW,248,0.0,0.0,84,0.00,,,0.00,WSDL version 420,2013-09-27 03:07:00,
2013-09-26 23:14:00,-999.0,-99.9,30.09,WSW,248,0.0,0.0,-999,0.00,,,0.00,WSDL version 420,2013-09-27 03:14:00,
2013-09-26 23:21:00,53.5,49.1,30.09,WSW,248,0.0,0.0,86,0.00,,,0.00,WSDL version 420,2013-09-27 03:21:00,
2013-09-26 23:27:00,53.5,49.3,30.09,WSW,248,0.0,0.0,86,0.00,,,0.00,WSDL version 420,2013-09-27 03:27:00,
2013-09-26 23:34:00,53.5,49.3,30.09,WSW,248,0.0,0.0,86,0.00,,,0.00,WSDL version 420,2013-09-27 03:34:00,
2013-09-26 23:41:00,53.2,48.9,30.09,WSW,248,0.0,0.0,84,0.00,,,0.00,WSDL version 420,2013-09-27 03:41:00,
2013-09-26 23:48:00,53.3,49.5,30.09,WSW,248,0.0,0.0,87,0.00,,,0.00,WSDL version 420,2013-09-27 03:48:00,
2013-09-26 23:55:00,53.2,49.3,30.09,WSW,248,0.0,0.0,87,0.00,,,0.00,WSDL version 420,2013-09-27 03:55:00,